Time;durP1;ratioP1;P1;durP2;ratioP2;P2;SDS_P1;SDS_P2;PMS_P1;PMS_P2;Temp;Humidity;BMP_temperature;BMP_pressure;BME280_temperature;BME280_humidity;BME280_pressure;Samples;Min_cycle;Max_cycle;Signal;HPM_P1;HPM_P2
2023/05/12 00:01:35;;;;;;;4.07;1.98;;;;;;;20.64;44.64;100283.03;5071438;28;20052;-63
2023/05/12 00:04:05;;;;;;;3.28;1.75;;;;;;;20.62;44.69;100285.06;5071649;28;20408;-63
2023/05/12 00:06:34;;;;;;;4.88;1.92;;;;;;;20.61;44.59;100286.91;5071336;28;20076;-64
2023/05/12 00:09:02;;;;;;;4.00;1.73;;;;;;;20.61;44.85;100276.06;5071525;28;20080;-62
2023/05/12 00:11:30;;;;;;;2.65;1.70;;;;;;;20.62;44.66;100285.06;5071260;28;20048;-62
2023/05/12 00:13:58;;;;;;;3.38;1.90;;;;;;;20.60;44.73;100284.38;5071336;28;20048;-64
2023/05/12 00:16:27;;;;;;;4.72;1.73;;;;;;;20.60;45.03;100285.22;5071427;28;20040;-64
2023/05/12 00:18:55;;;;;;;4.03;1.88;;;;;;;20.59;44.92;100275.38;5071415;28;20053;-63
2023/05/12 00:21:25;;;;;;;3.15;1.60;;;;;;;20.58;44.98;100285.38;5071256;28;20056;-63
2023/05/12 00:23:53;;;;;;;3.33;1.80;;;;;;;20.58;45.05;100282.66;5071414;28;20048;-64
2023/05/12 00:26:21;;;;;;;2.63;1.58;;;;;;;20.56;44.83;100273.84;5071018;28;20181;-64
2023/05/12 00:28:49;;;;;;;2.83;1.63;;;;;;;20.57;44.68;100280.97;5070134;28;20400;-64
2023/05/12 00:31:17;;;;;;;5.63;1.95;;;;;;;20.56;45.01;100273.84;5071247;28;20154;-64
2023/05/12 00:33:45;;;;;;;2.85;1.70;;;;;;;20.56;44.95;100273.84;5071094;28;20059;-64
2023/05/12 00:36:13;;;;;;;3.45;1.77;;;;;;;20.56;45.17;100273.84;5071134;28;20044;-64
2023/05/12 00:38:43;;;;;;;3.83;1.92;;;;;;;20.55;45.17;100274.84;5075024;28;20056;-64
2023/05/12 00:41:11;;;;;;;3.63;1.77;;;;;;;20.55;45.10;100271.28;5075018;28;20087;-64
2023/05/12 00:43:39;;;;;;;3.10;1.60;;;;;;;20.55;44.83;100271.28;5075173;28;20044;-64
2023/05/12 00:46:08;;;;;;;3.50;1.80;;;;;;;20.54;44.88;100272.28;5075234;28;20094;-65
2023/05/12 00:48:37;;;;;;;2.60;1.60;;;;;;;20.53;45.18;100268.72;5075037;28;20135;-64
2023/05/12 00:51:06;;;;;;;3.50;1.92;;;;;;;20.53;44.90;100265.16;5075077;28;20404;-64
2023/05/12 00:53:34;;;;;;;2.95;1.67;;;;;;;20.51;44.85;100262.63;5074770;28;20045;-64
2023/05/12 00:56:19;;;;;;;3.22;1.60;;;;;;;20.52;45.17;100269.72;5075024;28;20055;-64
2023/05/12 00:58:47;;;;;;;3.33;1.77;;;;;;;20.51;45.14;100254.50;5074824;28;20041;-64
2023/05/12 01:01:16;;;;;;;3.80;1.70;;;;;;;20.50;44.86;100263.63;5074803;28;20051;-64
2023/05/12 01:03:44;;;;;;;4.22;1.70;;;;;;;20.50;45.31;100251.94;5074661;28;20053;-64
2023/05/12 01:06:16;;;;;;;2.15;1.52;;;;;;;20.49;45.41;100261.94;5074331;28;20062;-64
2023/05/12 01:08:45;;;;;;;4.82;1.90;;;;;;;20.48;45.21;100254.81;5074694;28;20052;-63
2023/05/12 01:11:13;;;;;;;3.72;1.77;;;;;;;20.48;45.38;100257.53;5074598;28;20087;-64
2023/05/12 01:13:43;;;;;;;3.30;1.83;;;;;;;20.48;45.11;100256.66;5074383;28;20489;-63
2023/05/12 01:16:14;;;;;;;2.45;1.50;;;;;;;20.47;44.95;100257.69;5074354;28;20052;-64
2023/05/12 01:18:48;;;;;;;4.35;1.88;;;;;;;20.45;45.02;100252.38;5074249;28;20408;-64
2023/05/12 01:21:17;;;;;;;3.88;1.90;;;;;;;20.45;45.00;100255.09;5074468;28;20056;-63
2023/05/12 01:23:51;;;;;;;4.05;1.88;;;;;;;20.46;45.05;100255.94;5074401;28;20049;-63
2023/05/12 01:26:21;;;;;;;2.95;1.90;;;;;;;20.44;45.25;100263.38;5074258;28;20044;-63
2023/05/12 01:28:51;;;;;;;4.95;1.77;;;;;;;20.44;45.10;100264.22;5074058;28;20178;-63
2023/05/12 01:31:20;;;;;;;3.65;1.75;;;;;;;20.43;45.35;100262.53;5074059;28;20048;-63
2023/05/12 01:33:48;;;;;;;2.65;1.40;;;;;;;20.43;45.43;100267.09;5074498;28;20452;-63
2023/05/12 01:36:16;;;;;;;3.20;1.77;;;;;;;20.42;45.48;100260.81;5074244;28;20052;-63
2023/05/12 01:38:44;;;;;;;3.40;1.60;;;;;;;20.42;45.24;100260.81;5074014;28;20465;-63
2023/05/12 01:41:12;;;;;;;3.00;1.50;;;;;;;20.41;45.08;100264.53;5074237;28;20131;-63
2023/05/12 01:43:41;;;;;;;4.15;1.75;;;;;;;20.40;45.08;100262.81;5073945;28;20045;-62
2023/05/12 01:46:10;;;;;;;3.85;1.67;;;;;;;20.40;45.50;100257.41;5073833;28;20052;-62
2023/05/12 01:48:38;;;;;;;2.80;1.67;;;;;;;20.39;45.44;100263.84;5073216;28;20055;-63
2023/05/12 01:51:07;;;;;;;2.97;1.50;;;;;;;20.39;45.44;100266.53;5073932;28;20056;-63
2023/05/12 01:53:36;;;;;;;3.42;1.83;;;;;;;20.39;45.16;100271.97;5073696;28;20499;-63
2023/05/12 01:56:04;;;;;;;3.15;1.70;;;;;;;20.38;45.54;100275.69;5073674;28;20080;-63
2023/05/12 01:58:32;;;;;;;3.10;1.70;;;;;;;20.37;45.50;100279.41;5073578;28;20084;-63
2023/05/12 02:01:02;;;;;;;3.55;1.83;;;;;;;20.37;45.09;100279.41;5073887;28;20045;-63
2023/05/12 02:03:30;;;;;;;3.67;1.80;;;;;;;20.37;45.22;100283.97;5073767;28;20044;-63
2023/05/12 02:05:58;;;;;;;4.43;1.80;;;;;;;20.37;45.31;100283.97;5073605;28;20049;-63
2023/05/12 02:08:27;;;;;;;3.25;1.70;;;;;;;20.36;45.58;100288.50;5073551;28;20049;-63
2023/05/12 02:11:04;;;;;;;3.00;1.60;;;;;;;20.35;45.23;100291.38;5073325;28;20056;-63
2023/05/12 02:13:33;;;;;;;3.38;1.70;;;;;;;20.35;45.52;100283.25;5073609;28;20440;-63
2023/05/12 02:16:02;;;;;;;4.18;1.63;;;;;;;20.35;45.48;100281.38;5073539;28;20051;-62
2023/05/12 02:18:31;;;;;;;2.58;1.42;;;;;;;20.35;45.31;100283.25;5073441;28;20040;-62
2023/05/12 02:20:59;;;;;;;3.85;1.70;;;;;;;20.33;45.37;100280.69;5073425;28;20512;-62
2023/05/12 02:23:27;;;;;;;2.58;1.60;;;;;;;20.33;45.43;100283.41;5073075;28;20105;-63
2023/05/12 02:25:55;;;;;;;3.15;1.80;;;;;;;20.32;45.35;100292.53;5073139;28;20109;-63
2023/05/12 02:28:23;;;;;;;2.25;1.55;;;;;;;20.31;45.62;100285.41;5073211;28;20041;-63
2023/05/12 02:30:51;;;;;;;2.83;1.80;;;;;;;20.32;45.50;100291.69;5073205;28;20444;-63
2023/05/12 02:33:21;;;;;;;3.35;1.60;;;;;;;20.32;45.65;100280.84;5073134;28;20135;-63
2023/05/12 02:35:50;;;;;;;2.30;1.52;;;;;;;20.30;45.72;100289.13;5072929;28;20474;-63
2023/05/12 02:38:18;;;;;;;3.55;1.90;;;;;;;20.29;45.33;100279.31;5072855;28;20074;-63
2023/05/12 02:40:47;;;;;;;2.33;1.60;;;;;;;20.30;45.29;100289.13;5072999;28;20045;-63
2023/05/12 02:43:15;;;;;;;3.10;1.73;;;;;;;20.29;45.36;100292.84;5072972;28;20068;-63
2023/05/12 02:45:43;;;;;;;3.42;1.90;;;;;;;20.29;45.58;100295.56;5072896;28;20130;-63
2023/05/12 02:48:11;;;;;;;2.60;1.35;;;;;;;20.28;45.39;100291.16;5072664;28;20041;-64
2023/05/12 02:50:40;;;;;;;3.25;1.80;;;;;;;20.27;45.86;100300.28;5072440;28;20566;-62
2023/05/12 02:53:08;;;;;;;3.15;1.65;;;;;;;20.26;45.42;100298.56;5072802;28;20052;-63
2023/05/12 02:55:37;;;;;;;2.90;1.70;;;;;;;20.26;45.71;100293.13;5072727;28;20098;-64
2023/05/12 02:58:05;;;;;;;4.20;1.85;;;;;;;20.25;45.55;100294.16;5072508;28;20049;-64
2023/05/12 03:00:33;;;;;;;3.30;1.55;;;;;;;20.24;45.54;100290.59;5071831;28;20045;-63
2023/05/12 03:03:01;;;;;;;5.65;1.70;;;;;;;20.24;45.82;100293.28;5072629;28;20059;-63
2023/05/12 03:05:29;;;;;;;3.42;1.45;;;;;;;20.24;45.89;100289.75;5072507;28;20040;-63
2023/05/12 03:07:59;;;;;;;2.80;1.65;;;;;;;20.23;45.87;100297.00;5072279;28;20127;-63
2023/05/12 03:10:27;;;;;;;3.42;1.75;;;;;;;20.23;45.42;100293.47;5072380;28;20102;-63
2023/05/12 03:12:55;;;;;;;3.75;1.80;;;;;;;20.23;45.74;100298.88;5072452;28;20106;-63
2023/05/12 03:15:23;;;;;;;2.92;1.60;;;;;;;20.23;45.49;100296.16;5072181;28;20048;-63
2023/05/12 03:17:51;;;;;;;3.17;1.75;;;;;;;20.22;45.76;100289.06;5072061;28;20091;-63
2023/05/12 03:20:19;;;;;;;2.95;1.50;;;;;;;20.21;45.57;100292.75;5072296;28;20053;-63
2023/05/12 03:22:48;;;;;;;3.80;1.70;;;;;;;20.21;45.68;100290.06;5072462;28;20080;-63
2023/05/12 03:25:17;;;;;;;3.63;1.92;;;;;;;20.20;45.96;100289.22;5072075;28;20489;-63
2023/05/12 03:27:46;;;;;;;3.45;1.90;;;;;;;20.19;45.72;100295.63;5071932;28;20508;-64
2023/05/12 03:30:14;;;;;;;2.60;1.50;;;;;;;20.19;45.80;100292.06;5072028;28;20139;-63
2023/05/12 03:32:44;;;;;;;3.05;1.55;;;;;;;20.19;45.85;100298.34;5071869;28;20834;-63
2023/05/12 03:35:12;;;;;;;3.05;1.73;;;;;;;20.19;46.00;100297.50;5072079;28;20049;-63
2023/05/12 03:37:40;;;;;;;2.70;1.70;;;;;;;20.19;45.88;100300.19;5071796;28;20045;-63
2023/05/12 03:40:09;;;;;;;2.67;1.60;;;;;;;20.18;46.08;100301.22;5072045;28;20079;-63
2023/05/12 03:42:38;;;;;;;2.72;1.65;;;;;;;20.17;46.00;100300.34;5071749;28;20051;-63
2023/05/12 03:45:08;;;;;;;2.20;1.48;;;;;;;20.16;46.00;100304.03;5071702;28;20144;-63
2023/05/12 03:47:36;;;;;;;3.28;1.70;;;;;;;20.16;45.94;100304.03;5071913;28;20062;-63
2023/05/12 03:50:05;;;;;;;2.45;1.55;;;;;;;20.16;45.78;100308.59;5071793;28;20047;-63
2023/05/12 03:52:33;;;;;;;3.20;1.52;;;;;;;20.15;45.93;100304.19;5071804;28;20044;-63
2023/05/12 03:55:01;;;;;;;2.65;1.65;;;;;;;20.15;45.81;100306.91;5071761;28;20044;-62
2023/05/12 03:57:30;;;;;;;3.08;1.60;;;;;;;20.15;46.18;100296.06;5070132;28;20489;-63
2023/05/12 04:00:00;;;;;;;2.63;1.40;;;;;;;20.15;45.83;100301.50;5071444;28;20507;-62
2023/05/12 04:02:28;;;;;;;2.47;1.60;;;;;;;20.14;45.72;100303.34;5071720;28;20055;-63
2023/05/12 04:04:56;;;;;;;2.67;1.60;;;;;;;20.14;45.98;100307.91;5071565;28;20053;-63
2023/05/12 04:07:25;;;;;;;2.80;1.58;;;;;;;20.14;45.75;100316.03;5071431;28;20135;-63
2023/05/12 04:09:53;;;;;;;2.55;1.70;;;;;;;20.14;46.02;100313.34;5071214;28;20049;-63
2023/05/12 04:12:21;;;;;;;2.53;1.65;;;;;;;20.13;46.15;100314.34;5070784;28;20627;-63
2023/05/12 04:14:49;;;;;;;4.22;1.70;;;;;;;20.12;46.14;100318.06;5071492;28;20131;-62
2023/05/12 04:17:19;;;;;;;3.30;1.50;;;;;;;20.12;46.13;100315.34;5071281;28;20052;-63
2023/05/12 04:19:47;;;;;;;3.15;1.77;;;;;;;20.11;46.08;100319.06;5071282;28;20094;-63
2023/05/12 04:22:18;;;;;;;3.03;1.60;;;;;;;20.11;46.11;100316.34;5071259;28;20080;-62
2023/05/12 04:24:47;;;;;;;1.95;1.58;;;;;;;20.10;45.84;100312.78;5071048;28;20127;-62
2023/05/12 04:27:15;;;;;;;2.97;1.42;;;;;;;20.10;46.20;100322.78;5071348;28;20046;-61
2023/05/12 04:29:43;;;;;;;2.67;1.58;;;;;;;20.10;45.79;100320.91;5071377;28;20056;-62
2023/05/12 04:32:11;;;;;;;3.15;1.60;;;;;;;20.11;46.11;100327.19;5071187;28;20102;-62
2023/05/12 04:34:40;;;;;;;2.40;1.50;;;;;;;20.09;46.11;100327.34;5071170;28;20048;-62
2023/05/12 04:37:08;;;;;;;2.53;1.48;;;;;;;20.09;46.03;100327.34;5071183;28;20059;-62
2023/05/12 04:39:37;;;;;;;4.45;1.73;;;;;;;20.09;46.09;100329.19;5070936;28;20460;-61
2023/05/12 04:42:06;;;;;;;2.55;1.52;;;;;;;20.08;46.06;100328.34;5071185;28;20048;-61
2023/05/12 04:44:34;;;;;;;2.63;1.77;;;;;;;20.08;46.36;100328.34;5070956;28;20098;-61
2023/05/12 04:47:02;;;;;;;2.05;1.52;;;;;;;20.07;45.89;100320.34;5070808;28;20040;-62
2023/05/12 04:49:30;;;;;;;2.85;1.52;;;;;;;20.07;45.90;100321.19;5070785;28;20044;-62
2023/05/12 04:51:59;;;;;;;2.88;1.63;;;;;;;20.08;45.90;100319.38;5070675;28;20048;-62
2023/05/12 04:54:28;;;;;;;2.85;1.60;;;;;;;20.07;46.30;100323.06;5070812;28;20052;-61
2023/05/12 04:56:56;;;;;;;2.53;1.60;;;;;;;20.06;46.01;100329.47;5071078;28;20139;-62
2023/05/12 04:59:24;;;;;;;2.55;1.65;;;;;;;20.06;46.13;100319.50;5070800;28;20052;-61
2023/05/12 05:01:52;;;;;;;2.38;1.65;;;;;;;20.06;46.24;100324.06;5070444;28;20049;-62
2023/05/12 05:04:20;;;;;;;3.00;1.58;;;;;;;20.06;46.17;100329.47;5070576;28;20132;-61
2023/05/12 05:06:49;;;;;;;2.47;1.70;;;;;;;20.05;46.07;100327.78;5070365;28;20052;-61
2023/05/12 05:09:18;;;;;;;2.70;1.58;;;;;;;20.05;46.24;100325.91;5070872;28;20049;-61
2023/05/12 05:11:46;;;;;;;2.63;1.65;;;;;;;20.04;46.09;100326.94;5070561;28;20048;-62
2023/05/12 05:14:14;;;;;;;3.13;1.58;;;;;;;20.05;46.22;100327.78;5070721;28;20082;-61
2023/05/12 05:16:42;;;;;;;3.15;1.70;;;;;;;20.04;46.21;100331.50;5070323;28;20067;-63
2023/05/12 05:19:12;;;;;;;2.25;1.55;;;;;;;20.04;46.11;100331.50;5070396;28;20044;-62
2023/05/12 05:21:52;;;;;;;2.33;1.60;;;;;;;20.04;46.47;100331.50;5070713;28;20128;-62
2023/05/12 05:24:22;;;;;;;2.78;1.60;;;;;;;20.04;46.22;100326.06;5072128;28;20052;-63
2023/05/12 05:26:50;;;;;;;3.20;1.70;;;;;;;20.03;46.13;100327.94;5073994;28;20048;-63
2023/05/12 05:29:18;;;;;;;2.63;1.67;;;;;;;20.01;46.44;100333.50;5073931;28;20045;-63
2023/05/12 05:31:46;;;;;;;3.15;1.63;;;;;;;20.04;46.04;100339.63;5073791;28;20417;-63
2023/05/12 05:34:15;;;;;;;2.78;1.58;;;;;;;20.02;46.41;100334.34;5072775;28;20043;-62
2023/05/12 05:36:43;;;;;;;3.13;1.63;;;;;;;20.02;46.25;100335.22;5073141;28;20052;-61
2023/05/12 05:39:11;;;;;;;3.17;1.70;;;;;;;20.02;46.08;100337.91;5073476;28;20040;-62
2023/05/12 05:41:41;;;;;;;2.47;1.55;;;;;;;20.02;46.10;100329.78;5070747;28;20098;-62
2023/05/12 05:44:09;;;;;;;2.83;1.70;;;;;;;20.01;46.49;100330.78;5071595;28;20094;-62
2023/05/12 05:46:37;;;;;;;2.60;1.60;;;;;;;20.02;46.33;100331.66;5072804;28;20576;-60
2023/05/12 05:49:05;;;;;;;2.75;1.67;;;;;;;20.02;46.63;100345.19;5072715;28;20075;-61
2023/05/12 05:51:33;;;;;;;3.42;1.67;;;;;;;20.01;46.55;100341.63;5073028;28;20436;-61
2023/05/12 05:54:02;;;;;;;2.90;1.70;;;;;;;20.02;46.85;100342.47;5072957;28;20386;-61
2023/05/12 05:56:31;;;;;;;2.72;1.70;;;;;;;20.01;46.45;100344.34;5072983;28;20040;-62
2023/05/12 05:59:01;;;;;;;3.50;1.70;;;;;;;20.02;46.67;100348.75;5072548;28;20499;-62
2023/05/12 06:01:30;;;;;;;6.13;1.90;;;;;;;20.02;46.78;100350.59;5072656;28;20568;-61
2023/05/12 06:03:58;;;;;;;4.03;1.88;;;;;;;20.02;47.12;100353.31;5072900;28;20123;-62
2023/05/12 06:06:27;;;;;;;3.78;1.77;;;;;;;20.01;46.89;100352.47;5073118;28;20123;-61
2023/05/12 06:08:55;;;;;;;4.78;1.80;;;;;;;20.02;47.13;100350.59;5072745;28;20045;-62
2023/05/12 06:11:23;;;;;;;2.38;1.48;;;;;;;20.02;47.25;100353.31;5070633;28;20102;-62
2023/05/12 06:13:51;;;;;;;5.43;1.70;;;;;;;20.02;47.34;100345.19;5073481;28;20139;-62
2023/05/12 06:16:21;;;;;;;2.88;1.60;;;;;;;20.03;47.24;100355.00;5073240;28;20045;-62
2023/05/12 06:18:49;;;;;;;5.07;1.65;;;;;;;20.03;47.46;100355.00;5073214;28;20056;-62
2023/05/12 06:21:17;;;;;;;4.90;1.70;;;;;;;20.02;47.24;100353.31;5072919;28;20135;-62
2023/05/12 06:23:46;;;;;;;4.40;1.80;;;;;;;20.02;47.63;100356.88;5065686;28;20059;-63
2023/05/12 06:26:14;;;;;;;4.60;1.90;;;;;;;20.04;47.49;100353.16;5073155;28;20048;-63
2023/05/12 06:28:42;;;;;;;2.75;1.63;;;;;;;20.03;47.26;100352.31;5072925;28;20049;-62
2023/05/12 06:31:10;;;;;;;4.15;1.90;;;;;;;20.03;47.19;100357.72;5081568;28;20047;-63
2023/05/12 06:33:40;;;;;;;5.47;1.80;;;;;;;20.03;47.66;100355.00;5088399;28;20052;-62
2023/05/12 06:36:09;;;;;;;6.60;1.73;;;;;;;20.05;47.63;100357.56;5073033;28;20045;-62
2023/05/12 06:38:37;;;;;;;6.68;1.70;;;;;;;20.05;47.63;100354.84;5072378;28;20052;-62
2023/05/12 06:41:05;;;;;;;4.18;1.92;;;;;;;20.04;47.66;100359.41;5071719;28;20048;-62
2023/05/12 06:43:33;;;;;;;3.58;1.58;;;;;;;20.04;47.62;100353.16;5071194;28;20079;-62
2023/05/12 06:46:01;;;;;;;4.35;2.13;;;;;;;20.05;47.33;100360.25;5071243;28;20052;-62
2023/05/12 06:48:30;;;;;;;4.07;1.80;;;;;;;20.05;47.54;100350.28;5071095;28;20070;-62
2023/05/12 06:50:59;;;;;;;2.88;1.63;;;;;;;20.05;47.66;100344.03;5071141;28;20485;-62
2023/05/12 06:53:27;;;;;;;3.15;1.50;;;;;;;20.06;47.81;100353.84;5071365;28;20052;-62
2023/05/12 06:55:56;;;;;;;4.35;1.70;;;;;;;20.05;47.47;100355.69;5071669;28;20041;-61
2023/05/12 06:58:24;;;;;;;3.97;1.50;;;;;;;20.07;47.36;100358.25;5072165;28;20052;-62
2023/05/12 07:00:52;;;;;;;3.63;1.75;;;;;;;20.06;47.83;100353.84;5072175;28;20044;-62
2023/05/12 07:03:20;;;;;;;5.97;1.60;;;;;;;20.06;47.71;100352.00;5072247;28;20094;-61
2023/05/12 07:05:48;;;;;;;3.45;1.65;;;;;;;20.07;47.64;100364.53;5071857;28;20048;-62
2023/05/12 07:08:18;;;;;;;8.00;2.10;;;;;;;20.07;47.79;100355.53;5072007;28;20052;-62
2023/05/12 07:10:46;;;;;;;3.13;1.75;;;;;;;20.08;47.81;100360.00;5072150;28;20048;-62
2023/05/12 07:13:15;;;;;;;5.45;2.08;;;;;;;20.08;47.80;100360.00;5072208;28;20048;-61
2023/05/12 07:15:43;;;;;;;5.65;1.90;;;;;;;20.07;47.49;100348.28;5071729;28;20045;-62
2023/05/12 07:18:11;;;;;;;2.72;1.75;;;;;;;20.08;47.86;100349.16;5071498;28;20052;-61
2023/05/12 07:20:39;;;;;;;3.45;1.63;;;;;;;20.08;47.94;100354.56;5071630;28;20416;-61
2023/05/12 07:23:08;;;;;;;4.53;1.83;;;;;;;20.09;47.90;100358.97;5071847;28;20098;-62
2023/05/12 07:25:38;;;;;;;6.88;1.98;;;;;;;20.08;47.71;100354.56;5071491;28;20470;-63
2023/05/12 07:28:06;;;;;;;5.25;1.55;;;;;;;20.09;47.67;100356.28;5071591;28;20045;-62
2023/05/12 07:30:34;;;;;;;3.15;1.85;;;;;;;20.09;48.00;100356.28;5071520;28;20091;-62
2023/05/12 07:33:03;;;;;;;5.28;1.88;;;;;;;20.08;47.87;100354.56;5071382;28;20459;-62
2023/05/12 07:35:31;;;;;;;4.70;2.00;;;;;;;20.09;47.82;100350.84;5071039;28;20083;-62
2023/05/12 07:38:02;;;;;;;5.22;2.00;;;;;;;20.08;47.99;100350.00;5071788;28;20052;-62
2023/05/12 07:40:30;;;;;;;3.88;1.70;;;;;;;20.10;47.83;100352.56;5071280;28;20048;-62
2023/05/12 07:43:00;;;;;;;3.80;1.70;;;;;;;20.10;48.03;100357.97;5071298;28;20044;-62
2023/05/12 07:45:28;;;;;;;5.18;1.77;;;;;;;20.09;47.75;100356.28;5070780;28;20045;-61
2023/05/12 07:47:56;;;;;;;5.00;2.08;;;;;;;20.10;47.71;100357.97;5070324;28;20493;-62
2023/05/12 07:50:24;;;;;;;3.90;1.70;;;;;;;20.10;47.99;100364.25;5071373;28;20055;-62
2023/05/12 07:52:53;;;;;;;3.15;1.67;;;;;;;20.10;47.63;100353.41;5071259;28;20056;-61
2023/05/12 07:55:22;;;;;;;4.97;2.03;;;;;;;20.10;47.67;100357.97;5071301;28;20385;-62
2023/05/12 07:57:50;;;;;;;2.83;1.73;;;;;;;20.10;47.78;100360.69;5071104;28;20051;-62
2023/05/12 08:00:20;;;;;;;4.10;1.90;;;;;;;20.11;47.65;100359.69;5071256;28;20161;-63
2023/05/12 08:02:52;;;;;;;3.95;1.88;;;;;;;20.11;47.80;100370.50;5071566;28;20135;-64
2023/05/12 08:05:21;;;;;;;3.57;1.83;;;;;;;20.12;47.92;100364.09;5071431;28;20348;-62
2023/05/12 08:07:49;;;;;;;4.63;1.80;;;;;;;20.11;47.86;100365.09;5071382;28;20102;-63
2023/05/12 08:10:18;;;;;;;2.95;1.70;;;;;;;20.13;47.69;100371.19;5071277;28;20048;-62
2023/05/12 08:12:46;;;;;;;2.85;1.58;;;;;;;20.12;47.97;100372.22;5071324;28;20101;-63
2023/05/12 08:15:14;;;;;;;2.97;1.83;;;;;;;20.13;47.69;100374.75;5071531;28;20465;-63
2023/05/12 08:17:44;;;;;;;4.35;1.90;;;;;;;20.14;48.07;100364.78;5071225;28;20122;-61
2023/05/12 08:20:12;;;;;;;7.80;2.13;;;;;;;20.13;47.62;100363.94;5071405;28;20062;-61
2023/05/12 08:22:40;;;;;;;3.10;1.98;;;;;;;20.12;47.83;100373.06;5071238;28;20041;-61
2023/05/12 08:25:09;;;;;;;4.15;1.77;;;;;;;20.14;47.78;100371.03;5070842;28;20045;-62
2023/05/12 08:27:39;;;;;;;4.03;1.83;;;;;;;20.14;47.91;100373.75;5071119;28;20114;-62
2023/05/12 08:30:08;;;;;;;3.70;1.58;;;;;;;20.14;47.99;100370.19;5071155;28;20048;-62
2023/05/12 08:32:36;;;;;;;3.42;1.90;;;;;;;20.14;47.69;100376.47;5070864;28;20059;-62
2023/05/12 08:35:06;;;;;;;4.30;1.90;;;;;;;20.15;47.71;100378.16;5070918;28;20106;-63
2023/05/12 08:37:37;;;;;;;3.65;1.67;;;;;;;20.16;47.74;100373.59;5070873;28;20045;-62
2023/05/12 08:40:13;;;;;;;4.07;1.80;;;;;;;20.16;47.94;100373.59;5070844;28;20567;-61
2023/05/12 08:42:43;;;;;;;3.03;1.60;;;;;;;20.17;48.02;100380.72;5070874;28;20481;-61
2023/05/12 08:45:12;;;;;;;4.22;1.95;;;;;;;20.16;47.79;100382.56;5070836;28;20147;-60
2023/05/12 08:47:42;;;;;;;2.78;1.60;;;;;;;20.17;47.96;100387.00;5070851;28;20041;-62
2023/05/12 08:50:14;;;;;;;3.05;1.80;;;;;;;20.16;47.84;100384.44;5070639;28;20057;-61
2023/05/12 08:52:42;;;;;;;4.25;1.95;;;;;;;20.17;48.01;100386.13;5070723;28;20507;-63
2023/05/12 08:55:12;;;;;;;4.65;2.00;;;;;;;20.17;48.00;100381.59;5071094;28;20447;-62
2023/05/12 08:57:44;;;;;;;4.88;1.92;;;;;;;20.18;47.65;100388.72;5070905;28;20045;-63
2023/05/12 09:00:14;;;;;;;2.97;1.80;;;;;;;20.17;47.97;100392.44;5073843;28;20044;-63
2023/05/12 09:02:43;;;;;;;2.92;1.77;;;;;;;20.18;48.02;100398.69;5074444;28;20048;-62
2023/05/12 09:05:22;;;;;;;4.40;1.83;;;;;;;20.18;47.60;100398.69;5074628;28;20135;-63
2023/05/12 09:07:54;;;;;;;3.38;2.10;;;;;;;20.18;47.59;100398.69;5074456;28;20500;-63
2023/05/12 09:10:24;;;;;;;3.03;1.80;;;;;;;20.17;47.65;100392.44;5074524;28;20053;-61
2023/05/12 09:13:16;;;;;;;3.47;1.70;;;;;;;20.17;47.72;100402.38;5074266;28;20040;-61
2023/05/12 09:15:47;;;;;;;3.63;1.70;;;;;;;20.17;47.98;100392.44;5074396;28;20056;-63
2023/05/12 09:18:15;;;;;;;2.85;1.85;;;;;;;20.17;47.82;100403.25;5073919;28;20489;-62
2023/05/12 09:20:45;;;;;;;3.72;1.95;;;;;;;20.17;47.91;100407.78;5074079;28;20442;-62
2023/05/12 09:23:20;;;;;;;3.55;2.00;;;;;;;20.17;47.59;100410.50;5074126;28;20047;-62
2023/05/12 09:26:00;;;;;;;2.97;1.80;;;;;;;20.16;47.95;100406.09;5073992;28;20041;-62
2023/05/12 09:28:35;;;;;;;4.15;1.90;;;;;;;20.16;47.82;100423.19;5073882;28;20055;-63
2023/05/12 09:31:14;;;;;;;4.18;2.08;;;;;;;20.16;48.03;100423.19;5074258;28;20071;-62
2023/05/12 09:33:44;;;;;;;4.28;1.90;;;;;;;20.15;47.93;100423.34;5074066;28;20059;-61
2023/05/12 09:36:17;;;;;;;2.60;1.70;;;;;;;20.16;47.60;100425.06;5073874;28;20139;-62
2023/05/12 09:38:45;;;;;;;2.70;1.60;;;;;;;20.15;48.03;100426.91;5073984;28;20420;-62
2023/05/12 09:41:13;;;;;;;4.07;2.00;;;;;;;20.15;47.53;100432.31;5074055;28;20045;-61
2023/05/12 09:43:45;;;;;;;2.60;1.60;;;;;;;20.15;47.52;100435.03;5073811;28;20409;-61
2023/05/12 09:46:14;;;;;;;3.78;2.17;;;;;;;20.15;47.54;100426.06;5073773;28;20052;-61
2023/05/12 09:48:42;;;;;;;4.20;1.80;;;;;;;20.15;47.78;100432.31;5073471;28;20438;-61
2023/05/12 09:51:11;;;;;;;3.58;2.20;;;;;;;20.14;47.81;100438.75;5073676;28;20123;-61
2023/05/12 09:53:45;;;;;;;3.22;1.95;;;;;;;20.15;47.89;100439.59;5073806;28;20051;-62
2023/05/12 09:56:14;;;;;;;3.67;1.95;;;;;;;20.15;47.53;100442.31;5073585;28;20050;-61
2023/05/12 09:58:44;;;;;;;3.35;1.70;;;;;;;20.14;47.61;100435.19;5073520;28;20100;-62
2023/05/12 10:01:14;;;;;;;3.78;1.98;;;;;;;20.14;47.72;100435.19;5073455;28;20044;-61
2023/05/12 10:03:53;;;;;;;3.17;1.90;;;;;;;20.14;47.84;100440.59;5073411;28;20044;-63
2023/05/12 10:06:27;;;;;;;3.33;1.90;;;;;;;20.13;47.68;100450.59;5073504;28;20426;-61
2023/05/12 10:09:04;;;;;;;4.25;2.00;;;;;;;20.14;47.74;100435.19;5073418;28;20059;-61
2023/05/12 10:11:32;;;;;;;3.38;2.03;;;;;;;20.13;47.98;100438.91;5072907;28;20450;-62
2023/05/12 10:14:01;;;;;;;4.20;1.90;;;;;;;20.13;47.71;100444.31;5073237;28;20053;-62
2023/05/12 10:16:29;;;;;;;3.63;2.03;;;;;;;20.12;47.82;100442.63;5073393;28;20523;-61
2023/05/12 10:18:58;;;;;;;3.78;2.10;;;;;;;20.12;47.91;100443.47;5073047;28;20059;-62
2023/05/12 10:21:27;;;;;;;2.83;1.73;;;;;;;20.12;47.63;100442.63;5073223;28;20044;-62
2023/05/12 10:23:56;;;;;;;3.15;2.03;;;;;;;20.11;47.87;100447.19;5073199;28;20417;-62
2023/05/12 10:26:26;;;;;;;2.88;1.85;;;;;;;20.13;47.82;100447.03;5072833;28;20051;-62
2023/05/12 10:28:54;;;;;;;2.83;1.70;;;;;;;20.13;47.67;100460.56;5073218;28;20459;-62
2023/05/12 10:31:23;;;;;;;3.80;2.00;;;;;;;20.12;47.75;100448.03;5072685;28;20049;-62
2023/05/12 10:33:58;;;;;;;3.85;1.80;;;;;;;20.12;48.01;100445.31;5073002;28;20056;-61
2023/05/12 10:36:27;;;;;;;4.45;2.20;;;;;;;20.11;48.00;100449.88;5072824;28;20075;-62
2023/05/12 10:38:56;;;;;;;2.70;1.70;;;;;;;20.11;48.02;100436.34;5073060;28;20052;-63
2023/05/12 10:41:36;;;;;;;3.38;1.80;;;;;;;20.12;47.98;100442.63;5072654;28;20131;-61
2023/05/12 10:44:04;;;;;;;3.17;2.00;;;;;;;20.12;47.77;100448.03;5072704;28;20051;-63
2023/05/12 10:46:32;;;;;;;3.55;1.98;;;;;;;20.10;47.73;100440.06;5072562;28;20441;-63
2023/05/12 10:49:03;;;;;;;4.68;1.83;;;;;;;20.10;48.01;100450.03;5072448;28;20044;-62
2023/05/12 10:51:32;;;;;;;3.00;1.90;;;;;;;20.11;48.06;100449.03;5072261;28;20040;-63
2023/05/12 10:54:02;;;;;;;3.92;2.13;;;;;;;20.10;47.99;100439.22;5072556;28;20072;-63
2023/05/12 10:56:43;;;;;;;3.08;1.85;;;;;;;20.10;47.80;100444.63;5072443;28;20386;-62
2023/05/12 10:59:15;;;;;;;3.75;2.05;;;;;;;20.09;47.92;100446.47;5072422;28;20048;-62
2023/05/12 11:02:00;;;;;;;3.10;1.95;;;;;;;20.09;47.71;100457.31;5072353;28;20061;-64
2023/05/12 11:04:40;;;;;;;3.03;1.85;;;;;;;20.08;48.03;100452.03;5072378;28;20048;-63
2023/05/12 11:07:11;;;;;;;3.17;1.67;;;;;;;20.09;47.74;100453.75;5071906;28;20052;-62
2023/05/12 11:09:43;;;;;;;3.47;1.80;;;;;;;20.09;48.10;100453.75;5072251;28;20044;-63
2023/05/12 11:12:30;;;;;;;3.30;2.13;;;;;;;20.08;48.03;100443.94;5072118;28;20052;-63
2023/05/12 11:14:59;;;;;;;;;;;;;;;20.09;48.09;100459.16;5072831;28;20052;-63
2023/05/12 11:17:27;;;;;;;3.58;2.13;;;;;;;20.08;48.08;100449.34;5072219;28;20031;-63
2023/05/12 11:19:57;;;;;;;2.60;1.92;;;;;;;20.08;47.93;100454.75;5071917;28;20493;-63
2023/05/12 11:22:25;;;;;;;3.20;1.77;;;;;;;20.06;47.97;100449.47;5071174;28;20098;-63
2023/05/12 11:24:53;;;;;;;4.28;2.15;;;;;;;20.07;48.00;100450.31;5071577;28;20564;-62
2023/05/12 11:27:24;;;;;;;3.63;1.90;;;;;;;20.08;48.02;100449.34;5071508;28;20511;-62
2023/05/12 11:29:58;;;;;;;3.33;1.95;;;;;;;20.07;47.76;100451.16;5071733;28;20040;-62
2023/05/12 11:32:26;;;;;;;4.22;1.77;;;;;;;20.06;47.73;100437.78;5071821;28;20064;-62
2023/05/12 11:34:55;;;;;;;3.38;2.08;;;;;;;20.05;47.74;100444.19;5071787;28;20048;-62